CST,Max TemperatureF,Mean TemperatureF,Min TemperatureF,Max Dew PointF,MeanDew PointF,Min DewpointF,Max Humidity, Mean Humidity, Min Humidity, Max Sea Level PressureIn, Mean Sea Level PressureIn, Min Sea Level PressureIn, Max VisibilityMiles, Mean VisibilityMiles, Min VisibilityMiles, Max Wind SpeedMPH, Mean Wind SpeedMPH, Max Gust SpeedMPH,PrecipitationIn, CloudCover, Events, WindDirDegrees
2012-1-1,72,65,57,72,62,40,100,74,48,30.49,30.27,30.09,10,5,0,22,8,29,T,7,Fog-Rain,16
2012-1-2,67,54,40,44,39,37,76,58,39,30.66,30.58,30.47,10,10,10,21,10,31,0.00,0,,352
2012-1-3,70,54,37,47,42,34,93,67,40,30.60,30.49,30.34,10,10,9,14,4,18,0.00,0,,29
2012-1-4,78,62,46,60,54,44,100,74,48,30.32,30.24,30.17,10,8,0,24,10,31,0.00,0,Fog,164
2012-1-5,78,67,56,62,58,54,100,75,50,30.30,30.22,30.15,10,10,4,18,5,26,0.19,4,Rain,190
2012-1-6,75,67,58,64,60,57,100,84,68,30.16,30.06,29.98,10,10,9,23,8,28,0.04,5,Rain,169
2012-1-7,81,68,55,64,60,55,100,77,54,30.04,29.98,29.95,10,4,0,22,9,26,0.00,1,Fog,175
2012-1-8,80,71,62,69,65,62,100,81,62,30.00,29.94,29.85,10,7,0,30,14,38,0.00,4,Fog,156
2012-1-9,81,69,57,72,64,46,97,77,57,30.07,29.91,29.84,10,9,8,22,13,29,0.02,6,Rain,208
2012-1-10,71,59,46,45,38,34,77,52,26,30.13,30.05,29.97,10,10,8,24,11,33,0.00,0,,317
2012-1-11,79,61,43,60,49,38,90,64,37,29.98,29.89,29.79,10,10,7,22,9,26,0.00,0,,195
2012-1-12,63,54,45,61,40,19,100,64,28,30.31,30.11,29.83,10,9,2,29,12,40,0.00,4,,354
2012-1-13,61,53,44,45,33,16,66,47,28,30.36,30.29,30.25,10,10,10,15,8,21,0.00,7,,353
2012-1-14,70,62,54,55,49,45,78,65,52,30.42,30.35,30.32,10,10,10,16,7,22,0.00,7,,23
2012-1-15,77,70,62,64,60,55,87,74,60,30.35,30.27,30.19,10,10,10,23,12,30,0.00,5,,126
2012-1-16,81,74,66,70,67,64,100,79,58,30.18,30.09,30.03,10,10,9,30,18,38,0.00,4,,164
2012-1-17,83,75,67,70,68,66,100,79,58,30.11,30.05,29.99,10,8,1,28,14,35,0.00,5,,171
2012-1-18,70,65,60,68,56,52,97,82,67,30.27,30.16,30.09,10,9,5,21,9,28,T,8,Rain,11
2012-1-19,76,69,61,68,61,55,90,80,69,30.08,30.00,29.91,10,10,7,23,8,28,0.00,7,,178
2012-1-20,82,75,68,70,67,66,100,81,62,29.92,29.87,29.82,10,9,7,35,19,43,0.00,4,,170
2012-1-21,84,75,66,70,68,64,97,80,62,29.97,29.90,29.86,10,7,1,16,10,23,0.00,6,,157
2012-1-22,82,75,67,72,68,65,100,79,58,29.88,29.84,29.78,10,8,2,31,14,36,0.00,4,,169
2012-1-23,83,75,67,72,69,66,100,85,69,30.02,29.94,29.88,10,6,1,16,6,20,0.00,8,,93
2012-1-24,81,77,72,72,70,68,100,84,67,29.94,29.85,29.74,10,9,2,32,18,39,T,7,Rain,141
2012-1-25,86,75,64,72,64,43,93,59,24,30.00,29.79,29.71,10,10,8,29,15,38,0.00,5,,195
2012-1-26,76,64,51,51,46,41,77,53,29,30.11,30.05,30.00,10,10,10,24,9,32,0.00,0,,335
2012-1-27,79,63,46,57,51,45,100,66,32,30.13,30.05,29.95,10,10,10,25,8,30,0.00,0,,159
2012-1-28,78,67,56,62,58,54,100,73,46,30.34,30.21,30.02,10,10,10,24,9,30,0.00,3,,45
2012-1-29,74,63,52,58,54,43,90,73,55,30.41,30.34,30.29,10,10,10,17,8,22,0.00,3,,9
2012-1-30,68,64,60,65,62,57,97,89,81,30.28,30.19,30.12,10,10,5,12,3,13,0.08,6,Rain,174
2012-1-31,81,73,64,70,66,63,93,82,71,30.14,30.09,30.00,10,9,5,16,7,18,0.01,6,Rain,141